Terminal Aerodrome Forecast
Issued by NWS

Home | Current Version | Previous Version | Text Only | Print | Product List | Glossary On
Versions: 1 2 3 4 5 6 7 8 9 10 11 12 13 14 15 16 17 18 19 20
000
FTUS43 KICT 221000 AAA
TAFHUT
TAF AMD
KHUT 221009Z 2210/2306 15007KT P6SM SKC
      TEMPO 2210/2213 3SM BR
     FM221700 18018G25KT P6SM SCT150
     FM230000 19012KT P6SM VCSH BKN050=

USA.gov is the U.S. government's official web portal to all federal, state and local government web resources and services.